Time;durP1;ratioP1;P1;durP2;ratioP2;P2;SDS_P1;SDS_P2;PMS_P1;PMS_P2;Temp;Humidity;BMP_temperature;BMP_pressure;BME280_temperature;BME280_humidity;BME280_pressure;Samples;Min_cycle;Max_cycle;Signal;HPM_P1;HPM_P2
2022/08/26 00:01:53;;;;;;;21.95;9.75;;;;;;;23.78;40.82;100027.75;5094419;28;20476;-64
2022/08/26 00:04:23;;;;;;;24.58;9.38;;;;;;;23.76;40.80;100012.31;5094845;28;20044;-64
2022/08/26 00:06:53;;;;;;;17.95;9.23;;;;;;;23.78;41.09;100022.06;5094434;28;20534;-63
2022/08/26 00:09:22;;;;;;;23.83;10.85;;;;;;;23.75;41.29;100022.88;5077418;28;20052;-63
2022/08/26 00:11:51;;;;;;;18.95;10.15;;;;;;;23.73;41.18;100021.66;5074021;28;20075;-63
2022/08/26 00:14:18;;;;;;;18.55;9.60;;;;;;;23.72;41.59;100025.72;5086342;28;20040;-62
2022/08/26 00:16:45;;;;;;;16.85;9.95;;;;;;;23.70;41.73;100022.47;5084988;28;20416;-63
2022/08/26 00:19:19;;;;;;;23.40;10.40;;;;;;;23.67;41.79;100017.59;5073590;28;20054;-63
2022/08/26 00:21:48;;;;;;;20.13;10.23;;;;;;;23.60;41.97;100026.16;5073940;28;20048;-63
2022/08/26 00:24:16;;;;;;;16.25;9.68;;;;;;;23.62;42.12;100018.03;5073560;28;20044;-64
2022/08/26 00:26:43;;;;;;;18.38;9.68;;;;;;;23.62;42.10;100026.56;5073751;28;20040;-63
2022/08/26 00:29:11;;;;;;;21.10;9.95;;;;;;;23.58;42.40;100020.88;5073681;28;20138;-64
2022/08/26 00:31:39;;;;;;;17.88;8.90;;;;;;;23.56;42.32;100025.34;5080652;28;20511;-63
2022/08/26 00:34:07;;;;;;;19.52;9.57;;;;;;;23.51;42.42;100023.75;5087920;28;20485;-63
2022/08/26 00:36:35;;;;;;;17.40;10.50;;;;;;;23.49;42.70;100025.34;5073694;28;20052;-64
2022/08/26 00:39:03;;;;;;;22.05;9.52;;;;;;;23.48;42.68;100038.75;5073269;28;20097;-64
2022/08/26 00:41:33;;;;;;;18.63;10.15;;;;;;;23.45;42.83;100028.22;5072181;28;20511;-63
2022/08/26 00:43:59;;;;;;;17.35;9.73;;;;;;;23.42;43.02;100036.72;5073163;28;20053;-64
2022/08/26 00:46:34;;;;;;;22.27;10.75;;;;;;;23.44;43.01;100037.13;5073455;28;20044;-64
2022/08/26 00:49:33;;;;;;;17.75;9.80;;;;;;;23.38;43.17;100042.41;5071905;28;20060;-70
2022/08/26 00:52:04;;;;;;;19.83;9.50;;;;;;;23.31;43.16;100031.88;5069958;28;20048;-69
2022/08/26 00:54:39;;;;;;;23.45;9.52;;;;;;;23.30;43.52;100033.06;5073023;28;20044;-70
2022/08/26 00:57:12;;;;;;;19.63;10.05;;;;;;;23.30;43.63;100035.13;5073296;28;20044;-69
2022/08/26 00:59:45;;;;;;;22.83;10.85;;;;;;;23.33;43.54;100032.25;5072552;28;20044;-70
2022/08/26 01:02:14;;;;;;;24.45;9.88;;;;;;;23.34;43.65;100028.22;5073841;28;20087;-71
2022/08/26 01:04:49;;;;;;;19.20;9.70;;;;;;;23.32;43.64;100030.66;5091878;28;20067;-71
2022/08/26 01:07:23;;;;;;;18.70;9.73;;;;;;;23.30;43.78;100032.28;5082138;28;20063;-71
2022/08/26 01:09:50;;;;;;;27.60;10.23;;;;;;;23.27;43.71;100033.88;5072824;28;20058;-71
2022/08/26 01:12:17;;;;;;;19.27;9.73;;;;;;;23.25;43.71;100021.31;5087869;28;20415;-71
2022/08/26 01:14:48;;;;;;;21.33;10.10;;;;;;;23.21;43.90;100024.13;5092900;28;20147;-71
2022/08/26 01:17:15;;;;;;;17.45;9.05;;;;;;;23.20;44.22;100022.50;5093133;28;20087;-69
2022/08/26 01:19:42;;;;;;;19.50;11.35;;;;;;;23.18;44.14;100021.31;5093806;28;20101;-70
2022/08/26 01:22:16;;;;;;;22.88;10.52;;;;;;;23.15;44.05;100020.06;5091941;28;20096;-71
2022/08/26 01:24:43;;;;;;;25.70;10.27;;;;;;;23.12;44.31;100020.88;5093368;28;20043;-70
2022/08/26 01:27:14;;;;;;;16.83;9.18;;;;;;;23.11;44.50;100024.94;5092755;28;20056;-71
2022/08/26 01:29:44;;;;;;;24.17;10.23;;;;;;;23.11;44.58;100026.94;5093086;28;20153;-70
2022/08/26 01:32:15;;;;;;;;;;;;;;;22.97;44.55;100029.78;5093133;28;20047;-70
2022/08/26 01:34:45;;;;;;;21.83;9.77;;;;;;;22.98;44.69;100020.84;5082256;28;19924;-70
2022/08/26 01:37:14;;;;;;;24.60;10.23;;;;;;;22.96;44.79;100020.47;5072610;28;20068;-71
2022/08/26 01:39:43;;;;;;;24.13;10.50;;;;;;;22.95;44.91;100020.88;5072767;28;20071;-71
2022/08/26 01:42:13;;;;;;;25.85;9.80;;;;;;;22.91;45.17;100025.72;5072667;28;20087;-71
2022/08/26 01:44:46;;;;;;;23.13;10.63;;;;;;;22.88;45.19;100027.34;5072706;28;20044;-68
2022/08/26 01:47:15;;;;;;;18.45;10.45;;;;;;;22.90;45.19;100024.91;5072405;28;20522;-68
2022/08/26 01:49:46;;;;;;;29.42;10.82;;;;;;;22.89;45.29;100026.13;5072295;28;20060;-63
2022/08/26 01:52:21;;;;;;;23.10;11.13;;;;;;;22.88;45.42;100027.34;5072330;28;20075;-63
2022/08/26 01:54:51;;;;;;;26.00;10.93;;;;;;;22.87;45.63;100025.72;5072439;28;20072;-64
2022/08/26 01:57:19;;;;;;;28.77;11.02;;;;;;;22.88;45.36;100032.19;5072114;28;20059;-64
2022/08/26 01:59:49;;;;;;;39.70;11.93;;;;;;;22.88;45.65;100033.03;5072322;28;20048;-68
2022/08/26 02:02:17;;;;;;;40.92;13.30;;;;;;;22.84;45.73;100025.72;5092556;28;20138;-68
2022/08/26 02:04:56;;;;;;;32.40;13.52;;;;;;;22.83;45.72;100027.72;5092676;28;20495;-67
2022/08/26 02:07:23;;;;;;;29.20;10.32;;;;;;;22.80;45.95;100031.38;5092178;28;20056;-68
2022/08/26 02:09:53;;;;;;;25.23;10.30;;;;;;;22.80;45.92;100028.53;5092492;28;20040;-68
2022/08/26 02:12:20;;;;;;;20.73;9.98;;;;;;;22.79;46.04;100035.44;5092186;28;20048;-68
2022/08/26 02:14:52;;;;;;;22.00;10.75;;;;;;;22.84;45.94;100029.38;5092478;28;20471;-68
2022/08/26 02:17:25;;;;;;;33.65;11.70;;;;;;;22.85;46.14;100033.00;5092477;28;20048;-68
2022/08/26 02:19:52;;;;;;;30.33;11.35;;;;;;;22.82;46.10;100028.13;5092397;28;20056;-68
2022/08/26 02:22:21;;;;;;;25.70;10.18;;;;;;;22.80;46.25;100025.69;5092451;28;20500;-68
2022/08/26 02:25:10;;;;;;;25.98;10.35;;;;;;;22.79;46.24;100029.75;5092049;28;20055;-68
2022/08/26 02:27:38;;;;;;;29.70;10.98;;;;;;;22.78;46.39;100028.16;5092399;28;20044;-68
2022/08/26 02:30:10;;;;;;;19.42;10.57;;;;;;;22.80;46.41;100031.38;5092467;28;20074;-68
2022/08/26 02:32:38;;;;;;;22.80;10.52;;;;;;;22.79;46.35;100029.75;5092019;28;20109;-67
2022/08/26 02:35:06;;;;;;;31.67;10.60;;;;;;;22.82;46.22;100036.66;5078370;28;20055;-68
2022/08/26 02:37:34;;;;;;;23.92;10.45;;;;;;;22.79;46.49;100029.75;5072035;28;20488;-68
2022/08/26 02:40:01;;;;;;;28.63;11.63;;;;;;;22.78;46.55;100038.69;5073848;28;20048;-68
2022/08/26 02:42:28;;;;;;;32.45;12.18;;;;;;;22.74;46.66;100029.34;5075841;28;20411;-68
2022/08/26 02:44:55;;;;;;;29.77;11.70;;;;;;;22.70;46.79;100037.84;5075550;28;20232;-68
2022/08/26 02:47:22;;;;;;;32.17;11.32;;;;;;;22.71;46.90;100028.13;5075406;28;20080;-68
2022/08/26 02:49:51;;;;;;;24.17;10.27;;;;;;;22.73;46.89;100028.53;5075896;28;20135;-68
2022/08/26 02:52:19;;;;;;;25.17;11.52;;;;;;;22.79;47.03;100034.63;5074074;28;20098;-67
2022/08/26 02:54:46;;;;;;;25.40;10.90;;;;;;;22.81;46.95;100038.69;5075557;28;20051;-67
2022/08/26 02:57:15;;;;;;;21.33;11.02;;;;;;;22.87;46.97;100037.09;5075487;28;20056;-67
2022/08/26 02:59:42;;;;;;;26.35;11.38;;;;;;;22.88;47.01;100035.84;5077106;28;20393;-68
2022/08/26 03:02:12;;;;;;;24.88;10.88;;;;;;;22.91;46.97;100034.22;5095824;28;20109;-67
2022/08/26 03:04:40;;;;;;;36.17;11.43;;;;;;;22.91;47.06;100040.72;5095783;28;20568;-65
2022/08/26 03:07:23;;;;;;;21.35;10.75;;;;;;;22.89;47.05;100040.31;5095523;28;20142;-68
2022/08/26 03:09:51;;;;;;;21.08;11.38;;;;;;;22.89;47.26;100037.47;5095213;28;20064;-67
2022/08/26 03:12:19;;;;;;;27.60;10.68;;;;;;;22.90;47.35;100044.78;5095253;28;20097;-66
2022/08/26 03:14:46;;;;;;;29.65;11.60;;;;;;;22.88;47.42;100038.69;5095364;28;20122;-66
2022/08/26 03:17:13;;;;;;;27.70;11.48;;;;;;;22.88;47.65;100050.03;5095555;28;20055;-67
2022/08/26 03:19:40;;;;;;;27.90;11.23;;;;;;;22.87;47.73;100051.25;5095008;28;20048;-68
2022/08/26 03:22:07;;;;;;;27.60;11.48;;;;;;;22.90;47.76;100049.63;5095297;28;20059;-70
2022/08/26 03:24:34;;;;;;;31.23;11.43;;;;;;;22.93;47.79;100052.50;5079981;28;20052;-70
2022/08/26 03:27:01;;;;;;;29.20;11.77;;;;;;;22.96;47.80;100057.34;5074735;28;20056;-70
2022/08/26 03:32:19;;;;;;;30.98;11.57;;;;;;;23.03;47.95;100051.69;5075059;28;20084;-70
2022/08/26 03:34:46;;;;;;;36.75;15.00;;;;;;;23.06;47.94;100035.88;5075002;28;20089;-72
2022/08/26 03:37:13;;;;;;;27.30;11.27;;;;;;;23.10;48.01;100050.88;5074777;28;20051;-69
2022/08/26 03:39:40;;;;;;;37.85;11.50;;;;;;;23.14;47.98;100043.19;5074755;28;20056;-70
2022/08/26 03:42:08;;;;;;;27.23;11.38;;;;;;;23.16;47.96;100044.41;5074831;28;20052;-72
2022/08/26 03:44:36;;;;;;;35.73;12.17;;;;;;;23.22;48.05;100042.78;5074582;28;20045;-71
2022/08/26 03:47:08;;;;;;;32.17;11.50;;;;;;;23.27;48.11;100048.06;5074680;28;20057;-69
2022/08/26 03:49:35;;;;;;;30.63;12.90;;;;;;;23.30;48.00;100035.91;5075339;28;20563;-71
2022/08/26 03:52:03;;;;;;;21.13;11.23;;;;;;;23.36;48.12;100048.47;5074107;28;20048;-71
2022/08/26 03:54:31;;;;;;;26.58;10.70;;;;;;;23.38;48.25;100046.06;5074351;28;20060;-70
2022/08/26 03:56:58;;;;;;;23.05;11.05;;;;;;;23.46;48.34;100051.72;5074040;28;20079;-70
2022/08/26 03:59:26;;;;;;;27.98;11.32;;;;;;;23.53;48.30;100052.53;5074927;28;20048;-70
2022/08/26 04:01:53;;;;;;;22.23;12.30;;;;;;;23.55;48.05;100049.28;5075237;28;20052;-69
2022/08/26 04:04:20;;;;;;;25.67;10.85;;;;;;;23.59;48.04;100055.78;5094305;28;20059;-71
2022/08/26 04:06:58;;;;;;;22.92;12.02;;;;;;;23.64;48.15;100052.50;5094456;28;20143;-69
2022/08/26 04:09:26;;;;;;;32.28;10.93;;;;;;;23.67;48.49;100054.53;5094387;28;20048;-71
2022/08/26 04:11:54;;;;;;;37.47;11.95;;;;;;;23.74;48.26;100055.34;5089955;28;20056;-71
2022/08/26 04:14:24;;;;;;;28.48;10.95;;;;;;;23.77;48.38;100062.25;5074321;28;20048;-70
2022/08/26 04:16:52;;;;;;;29.07;11.57;;;;;;;23.79;48.42;100065.47;5074225;28;20056;-70
2022/08/26 04:19:22;;;;;;;27.42;11.93;;;;;;;23.89;48.38;100065.47;5073996;28;20040;-71
2022/08/26 04:21:52;;;;;;;17.73;8.68;;;;;;;24.05;46.16;100060.19;5073907;28;20044;-70
2022/08/26 04:24:23;;;;;;;26.83;10.38;;;;;;;24.23;45.81;100057.28;5085465;28;20126;-70
2022/08/26 04:26:50;;;;;;;19.55;8.90;;;;;;;24.31;44.59;100064.56;5094234;28;20052;-71
2022/08/26 04:29:22;;;;;;;21.58;9.07;;;;;;;24.50;43.23;100062.03;5093935;28;20111;-72
2022/08/26 04:31:51;;;;;;;17.20;8.15;;;;;;;24.70;41.53;100062.38;5075772;28;20205;-71
2022/08/26 04:34:25;;;;;;;21.40;8.27;;;;;;;24.89;40.18;100067.53;5086326;28;20127;-69
2022/08/26 04:36:54;;;;;;;18.50;8.88;;;;;;;25.04;38.85;100057.69;5072620;28;20086;-71
2022/08/26 04:39:22;;;;;;;26.95;7.13;;;;;;;25.16;38.11;100060.03;5073282;28;20066;-71
2022/08/26 04:41:53;;;;;;;18.50;8.13;;;;;;;25.29;37.64;100058.31;5073658;28;20067;-70
2022/08/26 04:44:24;;;;;;;14.20;7.30;;;;;;;25.39;36.99;100057.44;5073447;28;20049;-71
2022/08/26 04:46:51;;;;;;;14.88;8.48;;;;;;;25.52;36.68;100061.38;5073064;28;20048;-71
2022/08/26 04:49:19;;;;;;;13.70;8.02;;;;;;;25.64;36.24;100058.00;5073445;28;20139;-69
2022/08/26 04:51:47;;;;;;;15.02;8.52;;;;;;;25.76;36.16;100068.09;5073310;28;20076;-71
2022/08/26 04:54:15;;;;;;;11.18;7.07;;;;;;;25.85;35.71;100060.69;5072645;28;20056;-72
2022/08/26 04:56:43;;;;;;;11.57;6.70;;;;;;;25.98;35.03;100064.63;5073217;28;20500;-66
2022/08/26 04:59:14;;;;;;;14.18;7.22;;;;;;;26.04;35.18;100060.09;5073099;28;20128;-66
2022/08/26 05:01:50;;;;;;;11.13;6.90;;;;;;;26.16;35.40;100062.41;5072632;28;20052;-66
2022/08/26 05:04:18;;;;;;;13.85;7.82;;;;;;;26.21;35.91;100061.94;5072862;28;20511;-66
2022/08/26 05:06:47;;;;;;;19.70;7.75;;;;;;;26.29;35.80;100066.31;5072888;28;20052;-67
2022/08/26 05:09:14;;;;;;;18.15;8.02;;;;;;;26.35;36.40;100069.53;5072577;28;20083;-67
2022/08/26 05:11:41;;;;;;;18.45;8.60;;;;;;;26.41;35.90;100074.31;5072944;28;20565;-67
2022/08/26 05:14:08;;;;;;;18.08;8.13;;;;;;;26.47;35.96;100066.91;5072648;28;20131;-67
2022/08/26 05:16:36;;;;;;;15.25;7.75;;;;;;;26.53;36.09;100064.41;5072881;28;20052;-69
2022/08/26 05:19:07;;;;;;;21.05;7.90;;;;;;;26.60;36.35;100070.81;5072765;28;20056;-67
2022/08/26 05:21:38;;;;;;;14.68;7.53;;;;;;;26.67;36.42;100069.94;5072841;28;20055;-67
2022/08/26 05:24:05;;;;;;;12.15;7.82;;;;;;;26.74;36.39;100070.63;5081005;28;20044;-67
2022/08/26 05:26:32;;;;;;;15.63;7.53;;;;;;;26.83;36.38;100065.22;5093000;28;20165;-66
2022/08/26 05:29:00;;;;;;;16.13;8.10;;;;;;;26.92;36.40;100081.81;5092780;28;20079;-66
2022/08/26 05:31:30;;;;;;;12.93;7.75;;;;;;;27.00;36.79;100080.50;5092821;28;20036;-66
2022/08/26 05:33:58;;;;;;;22.70;8.10;;;;;;;27.09;36.71;100079.94;5088383;28;20040;-66
2022/08/26 05:36:32;;;;;;;19.05;7.65;;;;;;;27.23;35.98;100083.38;5072728;28;20050;-65
2022/08/26 05:38:59;;;;;;;19.40;7.53;;;;;;;27.44;35.90;100085.16;5072932;28;20068;-65
2022/08/26 05:41:33;;;;;;;15.48;7.22;;;;;;;27.78;35.31;100080.88;5072574;28;20139;-67
2022/08/26 05:44:10;;;;;;;18.70;8.35;;;;;;;28.08;34.40;100083.59;5072311;28;20113;-67
2022/08/26 05:46:38;;;;;;;12.45;7.30;;;;;;;28.40;33.22;100075.19;5072330;28;20404;-66
2022/08/26 05:49:06;;;;;;;17.83;8.52;;;;;;;28.70;32.97;100088.50;5072306;28;20531;-66
2022/08/26 05:51:40;;;;;;;13.20;7.00;;;;;;;30.29;29.76;100076.81;5072331;28;20144;-66
2022/08/26 05:54:07;;;;;;;11.63;7.70;;;;;;;32.00;27.56;100079.16;5071873;28;20056;-66
2022/08/26 05:56:37;;;;;;;18.95;7.03;;;;;;;34.35;24.08;100078.34;5072678;28;20082;-65
2022/08/26 05:59:05;;;;;;;15.73;7.57;;;;;;;35.58;22.77;100078.25;5072395;28;20044;-66
2022/08/26 06:01:41;;;;;;;15.50;7.15;;;;;;;35.31;23.38;100072.56;5072731;28;20056;-67
2022/08/26 06:04:09;;;;;;;14.50;7.85;;;;;;;34.25;23.98;100081.72;5072399;28;20082;-66
2022/08/26 06:06:40;;;;;;;12.13;7.55;;;;;;;33.91;24.61;100082.00;5073137;28;20518;-66
2022/08/26 06:09:10;;;;;;;10.63;6.72;;;;;;;33.37;24.57;100083.44;5072184;28;20503;-67
2022/08/26 06:11:38;;;;;;;12.43;6.68;;;;;;;33.62;24.44;100084.47;5070750;28;20052;-66
2022/08/26 06:14:07;;;;;;;17.98;8.20;;;;;;;35.53;21.43;100084.75;5084693;28;20044;-66
2022/08/26 06:16:39;;;;;;;16.50;7.30;;;;;;;38.49;18.72;100081.28;5096623;28;20585;-66
2022/08/26 06:19:09;;;;;;;17.20;7.55;;;;;;;39.87;17.58;100085.56;5096541;28;20048;-65
2022/08/26 06:21:39;;;;;;;18.92;7.72;;;;;;;38.48;18.18;100090.53;5094853;28;20055;-67
2022/08/26 06:27:01;;;;;;;14.90;7.20;;;;;;;35.76;20.64;100080.28;5096264;28;20058;-64
2022/08/26 06:29:32;;;;;;;12.55;7.38;;;;;;;35.40;21.34;100089.16;5096482;28;20147;-64
2022/08/26 06:32:01;;;;;;;13.45;7.53;;;;;;;34.96;21.14;100085.91;5096335;28;20056;-64
2022/08/26 06:34:28;;;;;;;14.27;7.68;;;;;;;34.57;22.02;100087.69;5087429;28;20090;-64
2022/08/26 06:37:01;;;;;;;11.88;6.90;;;;;;;34.08;21.76;100089.91;5075861;28;20049;-64
2022/08/26 06:39:29;;;;;;;11.02;7.30;;;;;;;34.08;21.58;100089.09;5075406;28;20044;-64
2022/08/26 06:41:56;;;;;;;13.68;6.82;;;;;;;34.58;21.26;100082.72;5075998;28;20067;-64
2022/08/26 06:44:23;;;;;;;13.68;6.72;;;;;;;34.94;20.40;100088.47;5075588;28;20049;-64
2022/08/26 06:46:50;;;;;;;14.23;6.53;;;;;;;35.44;19.81;100086.88;5073862;28;20155;-72
2022/08/26 06:49:17;;;;;;;16.85;6.57;;;;;;;35.15;19.52;100087.44;5075597;28;20055;-69
2022/08/26 06:51:53;;;;;;;10.32;6.32;;;;;;;34.20;20.31;100091.03;5075302;28;20052;-72
2022/08/26 06:54:20;;;;;;;14.40;7.03;;;;;;;33.41;21.04;100086.97;5075243;28;20060;-73
2022/08/26 06:56:48;;;;;;;11.85;6.00;;;;;;;32.76;21.67;100092.00;5075946;28;20123;-71
2022/08/26 06:59:17;;;;;;;11.57;6.25;;;;;;;32.32;22.17;100078.81;5075728;28;20066;-71
2022/08/26 07:01:45;;;;;;;17.85;6.60;;;;;;;32.19;22.07;100085.91;5075911;28;20052;-69
2022/08/26 07:04:15;;;;;;;10.15;6.30;;;;;;;32.10;22.47;100088.69;5094828;28;20459;-67
2022/08/26 07:06:49;;;;;;;14.32;6.80;;;;;;;32.33;22.17;100085.41;5095412;28;20044;-68
2022/08/26 07:09:20;;;;;;;22.33;6.90;;;;;;;32.61;21.51;100084.34;5095670;28;20491;-67
2022/08/26 07:11:48;;;;;;;10.70;6.93;;;;;;;32.44;21.74;100080.88;5095674;28;20056;-66
2022/08/26 07:14:16;;;;;;;9.70;6.47;;;;;;;32.65;21.64;100082.94;5095813;28;20406;-66
2022/08/26 07:16:50;;;;;;;8.80;5.82;;;;;;;33.19;20.52;100086.19;5095143;28;20075;-65
2022/08/26 07:19:19;;;;;;;18.05;6.00;;;;;;;33.17;20.93;100090.81;5095392;28;20148;-67
2022/08/26 07:21:58;;;;;;;9.68;5.72;;;;;;;33.31;20.65;100082.38;5094417;28;20044;-67
2022/08/26 07:24:25;;;;;;;;;;;;;;;34.02;20.39;100085.22;5095810;28;20056;-67
2022/08/26 07:27:00;;;;;;;8.93;5.78;;;;;;;35.39;18.97;100085.44;5094783;28;19927;-67
2022/08/26 07:29:28;;;;;;;14.20;6.70;;;;;;;35.40;18.73;100081.25;5086027;28;20057;-67
2022/08/26 07:31:56;;;;;;;12.05;5.90;;;;;;;35.85;18.14;100083.94;5075116;28;20094;-67
2022/08/26 07:34:26;;;;;;;9.68;6.20;;;;;;;36.59;17.68;100083.69;5074812;28;20102;-67
2022/08/26 07:36:53;;;;;;;16.27;11.05;;;;;;;36.46;17.53;100082.38;5074650;28;20047;-67
2022/08/26 07:39:21;;;;;;;14.45;6.38;;;;;;;36.53;17.64;100077.00;5074910;28;20470;-67
2022/08/26 07:41:48;;;;;;;9.82;5.45;;;;;;;37.90;16.01;100074.13;5074856;28;20052;-67
2022/08/26 07:44:15;;;;;;;18.52;6.30;;;;;;;40.44;13.97;100079.50;5074937;28;20054;-67
2022/08/26 07:46:44;;;;;;;9.35;6.15;;;;;;;41.62;13.04;100077.84;5074714;28;20052;-67
2022/08/26 07:49:23;;;;;;;11.73;5.80;;;;;;;41.55;13.07;100075.47;5075519;28;20094;-67
2022/08/26 07:51:50;;;;;;;10.70;5.57;;;;;;;43.28;11.56;100077.16;5074426;28;20503;-67
2022/08/26 07:54:17;;;;;;;12.40;5.93;;;;;;;46.31;9.73;100079.53;5074297;28;20080;-66
2022/08/26 07:56:47;;;;;;;8.30;5.70;;;;;;;46.56;9.41;100079.28;5074684;28;20052;-67
2022/08/26 07:59:15;;;;;;;11.48;5.32;;;;;;;46.16;9.73;100084.38;5074337;28;20110;-66
2022/08/26 08:01:42;;;;;;;13.77;5.78;;;;;;;46.87;9.60;100076.16;5074690;28;20082;-66
2022/08/26 08:04:12;;;;;;;13.20;5.60;;;;;;;45.34;10.28;100074.91;5094246;28;20097;-65
2022/08/26 08:06:40;;;;;;;9.43;6.35;;;;;;;45.34;10.52;100069.81;5094252;28;20048;-66
2022/08/26 08:09:11;;;;;;;9.65;6.30;;;;;;;48.04;8.28;100076.94;5092992;28;20048;-67
2022/08/26 08:11:40;;;;;;;7.95;5.43;;;;;;;50.60;7.32;100072.31;5094517;28;20063;-67
2022/08/26 08:14:08;;;;;;;11.70;5.93;;;;;;;52.31;6.15;100080.66;5094037;28;20075;-67
2022/08/26 08:16:37;;;;;;;15.02;5.53;;;;;;;53.83;5.39;100068.19;5094299;28;20051;-67
2022/08/26 08:19:12;;;;;;;7.90;5.57;;;;;;;54.90;5.08;100075.22;5080683;28;20048;-66
2022/08/26 08:21:40;;;;;;;11.13;5.65;;;;;;;55.10;4.33;100076.75;5074712;28;20415;-66
2022/08/26 08:24:07;;;;;;;14.63;5.28;;;;;;;55.33;4.44;100067.28;5085238;28;20047;-66
2022/08/26 08:26:34;;;;;;;8.60;5.65;;;;;;;55.91;4.21;100076.81;5094159;28;20419;-66
2022/08/26 08:29:02;;;;;;;6.45;5.18;;;;;;;56.53;3.81;100075.28;5093744;28;20051;-67
2022/08/26 08:31:32;;;;;;;6.95;5.55;;;;;;;56.31;3.52;100073.69;5094034;28;20083;-66
2022/08/26 08:34:18;;;;;;;11.50;5.68;;;;;;;56.63;3.49;100070.81;5086419;28;20495;-66
2022/08/26 08:36:47;;;;;;;8.85;6.00;;;;;;;57.48;3.06;100070.53;5072825;28;20044;-66
2022/08/26 08:39:16;;;;;;;26.63;6.70;;;;;;;58.02;2.74;100074.84;5073156;28;20147;-66
2022/08/26 08:41:55;;;;;;;10.63;5.90;;;;;;;58.65;2.68;100068.31;5076653;28;20044;-66
2022/08/26 08:44:25;;;;;;;12.43;5.68;;;;;;;59.00;2.26;100061.38;5086561;28;20562;-71
2022/08/26 08:47:18;;;;;;;7.13;5.70;;;;;;;57.54;2.85;100077.72;5086352;28;20418;-75
2022/08/26 08:49:46;;;;;;;7.57;5.70;;;;;;;56.23;3.59;100064.19;5083897;28;20048;-71
2022/08/26 08:52:28;;;;;;;12.07;5.47;;;;;;;56.06;3.30;100065.25;5091912;28;20040;-75
2022/08/26 08:54:55;;;;;;;6.47;5.20;;;;;;;56.23;3.64;100055.22;5092067;28;20487;-72
2022/08/26 08:57:37;;;;;;;15.63;7.18;;;;;;;56.97;3.10;100058.19;5088524;28;20126;-73
2022/08/26 09:00:14;;;;;;;7.68;5.78;;;;;;;57.16;3.33;100057.19;5087560;28;20503;-73
2022/08/26 09:03:23;;;;;;;8.35;5.72;;;;;;;57.17;3.16;100058.75;5086050;28;20411;-71
2022/08/26 09:05:52;;;;;;;15.48;5.88;;;;;;;57.57;2.88;100051.69;5086605;28;20048;-71
2022/08/26 09:08:35;;;;;;;8.30;5.97;;;;;;;58.29;3.13;100047.28;5086564;28;20507;-75
2022/08/26 09:11:03;;;;;;;8.48;5.88;;;;;;;58.38;2.46;100047.13;5089327;28;20052;-73
2022/08/26 09:13:30;;;;;;;11.80;7.57;;;;;;;58.70;2.95;100056.56;5086064;28;20074;-73
2022/08/26 09:16:09;;;;;;;9.65;5.78;;;;;;;58.85;2.32;100053.75;5089052;28;20413;-71
2022/08/26 09:19:04;;;;;;;12.02;6.00;;;;;;;58.79;2.79;100053.41;5090872;28;20075;-72
2022/08/26 09:21:32;;;;;;;13.35;6.07;;;;;;;58.35;2.96;100057.44;5088495;28;20048;-73
2022/08/26 09:24:00;;;;;;;15.23;6.40;;;;;;;57.87;2.48;100051.44;5087024;28;20051;-72
2022/08/26 09:26:46;;;;;;;50.72;8.63;;;;;;;57.76;2.75;100051.41;5088144;28;20504;-72
2022/08/26 09:29:24;;;;;;;19.38;6.10;;;;;;;58.16;2.81;100048.78;5090020;28;20044;-71
2022/08/26 09:32:11;;;;;;;28.25;7.03;;;;;;;58.84;2.44;100048.41;5089509;28;20052;-72
2022/08/26 09:34:56;;;;;;;38.50;7.55;;;;;;;58.99;1.90;100048.63;5085703;28;20050;-72
2022/08/26 09:37:43;;;;;;;8.30;5.70;;;;;;;57.41;3.11;100047.63;5089586;28;20051;-71
2022/08/26 09:40:33;;;;;;;14.18;6.00;;;;;;;52.55;4.53;100035.19;5091759;28;20558;-72
2022/08/26 09:43:03;;;;;;;14.90;5.88;;;;;;;48.92;6.20;100033.69;5092073;28;20047;-73
2022/08/26 09:45:32;;;;;;;32.90;6.72;;;;;;;46.09;7.64;100018.13;5087278;28;20118;-71
2022/08/26 09:48:00;;;;;;;18.92;6.45;;;;;;;44.14;8.74;100026.16;5088083;28;20152;-71
2022/08/26 09:50:35;;;;;;;20.63;6.63;;;;;;;42.37;9.92;100021.81;5087484;28;20174;-70
2022/08/26 09:53:11;;;;;;;10.15;5.88;;;;;;;41.38;10.51;100016.25;5080010;28;20415;-72
2022/08/26 09:55:44;;;;;;;12.75;6.55;;;;;;;40.21;11.63;100031.09;5084281;28;20044;-73
2022/08/26 09:58:14;;;;;;;12.88;5.97;;;;;;;39.25;12.08;100028.13;5083799;28;20081;-73
2022/08/26 10:00:53;;;;;;;8.40;5.75;;;;;;;38.62;12.75;100011.91;5081393;28;20424;-74
2022/08/26 10:03:29;;;;;;;11.55;6.13;;;;;;;38.13;13.52;100023.75;5086134;28;20048;-75
2022/08/26 10:06:36;;;;;;;14.13;6.28;;;;;;;37.49;13.23;100015.16;5092755;28;20402;-74
2022/08/26 10:09:04;;;;;;;16.30;6.32;;;;;;;37.26;13.74;100018.25;5049980;28;20416;-72
2022/08/26 10:11:46;;;;;;;13.90;6.03;;;;;;;36.93;14.25;100012.63;5049782;28;20072;-74
2022/08/26 10:14:32;;;;;;;10.00;6.13;;;;;;;36.63;14.40;100008.94;5048552;28;20049;-69
2022/08/26 10:17:15;;;;;;;18.90;7.35;;;;;;;36.24;14.54;100012.34;5050269;28;20053;-73
2022/08/26 10:19:50;;;;;;;14.55;6.20;;;;;;;36.05;14.72;100011.69;5033943;28;20053;-72
2022/08/26 10:22:25;;;;;;;18.52;6.05;;;;;;;35.83;14.92;100004.63;5049722;28;20060;-74
2022/08/26 10:24:56;;;;;;;13.02;6.13;;;;;;;35.63;15.11;100001.50;5034964;28;20057;-73
2022/08/26 10:27:32;;;;;;;13.25;6.53;;;;;;;35.35;15.25;100003.78;5029835;28;20049;-72
2022/08/26 10:30:06;;;;;;;10.00;5.78;;;;;;;34.99;15.21;99995.25;5029831;28;20053;-72
2022/08/26 10:32:44;;;;;;;16.42;6.18;;;;;;;34.99;15.07;99996.03;5048352;28;20060;-72
2022/08/26 10:35:13;;;;;;;7.15;6.10;;;;;;;34.82;15.84;99996.88;5048044;28;20156;-74
2022/08/26 10:37:50;;;;;;;12.85;7.10;;;;;;;34.64;16.42;99989.06;5032377;28;20480;-73
2022/08/26 10:40:24;;;;;;;19.83;7.60;;;;;;;34.61;16.47;99989.25;5050104;28;20049;-71
2022/08/26 10:43:07;;;;;;;11.85;6.55;;;;;;;34.65;16.82;100001.44;5066635;28;20060;-72
2022/08/26 10:45:45;;;;;;;16.98;6.50;;;;;;;34.48;16.24;99997.28;5078026;28;20101;-74
2022/08/26 10:48:20;;;;;;;13.90;6.85;;;;;;;34.19;16.72;99985.44;5087318;28;20059;-71
2022/08/26 10:50:48;;;;;;;15.32;6.88;;;;;;;33.91;16.78;99989.59;5090567;28;20140;-71
2022/08/26 10:53:40;;;;;;;8.20;6.28;;;;;;;33.59;16.97;99987.31;5084184;28;20470;-72
2022/08/26 10:56:28;;;;;;;15.02;7.18;;;;;;;33.40;16.77;99995.13;5087851;28;20455;-72
2022/08/26 10:59:08;;;;;;;10.77;5.72;;;;;;;33.36;16.36;99980.81;5091633;28;20426;-73
2022/08/26 11:02:00;;;;;;;11.82;6.07;;;;;;;33.29;16.31;99981.13;5087464;28;20044;-72
2022/08/26 11:04:48;;;;;;;11.73;6.05;;;;;;;33.38;16.34;99984.06;5092754;28;20040;-72
2022/08/26 11:07:38;;;;;;;14.05;5.75;;;;;;;33.47;16.30;99968.06;5093228;28;20051;-72
2022/08/26 11:10:20;;;;;;;;;;;;;;;33.48;16.21;99976.22;5096032;28;20583;-73
2022/08/26 11:13:06;;;;;;;15.73;5.95;;;;;;;33.49;15.84;99977.81;5089652;28;20306;-73
2022/08/26 11:15:39;;;;;;;13.65;5.47;;;;;;;33.52;15.85;99976.06;5074782;28;20055;-72
2022/08/26 11:18:38;;;;;;;11.32;6.53;;;;;;;33.54;16.11;99973.50;5075045;28;20049;-72
2022/08/26 11:21:40;;;;;;;13.77;6.17;;;;;;;33.41;16.33;99979.41;5075170;28;20495;-72
2022/08/26 11:24:07;;;;;;;11.23;6.32;;;;;;;33.13;16.70;99972.72;5084973;28;20071;-75
2022/08/26 11:26:35;;;;;;;11.03;5.73;;;;;;;32.97;16.94;99975.06;5075790;28;20488;-72
2022/08/26 11:29:56;;;;;;;18.08;10.70;;;;;;;32.95;17.19;99961.13;5074966;28;20071;-72
2022/08/26 11:32:35;;;;;;;17.08;6.32;;;;;;;32.91;17.22;99954.72;5086768;28;20052;-73
2022/08/26 11:35:23;;;;;;;11.45;7.18;;;;;;;32.69;17.31;99956.84;5081251;28;20045;-74
2022/08/26 11:37:55;;;;;;;9.13;5.95;;;;;;;32.49;17.79;99979.44;5074078;28;20535;-73
2022/08/26 11:40:27;;;;;;;14.73;5.63;;;;;;;32.35;17.45;99951.19;5074781;28;20091;-74
2022/08/26 11:43:18;;;;;;;9.48;6.00;;;;;;;32.23;17.97;99957.78;5080632;28;20414;-72
2022/08/26 11:45:48;;;;;;;13.75;6.53;;;;;;;32.16;17.59;99960.97;5087601;28;20044;-72
2022/08/26 11:48:18;;;;;;;14.73;5.90;;;;;;;32.17;17.68;99953.91;5082400;28;20063;-72